createdAt,value
2023-01-26T00:00:21.066Z,1.98
2023-01-26T00:01:23.968Z,2.01
2023-01-26T00:02:25.859Z,2.04
2023-01-26T00:03:28.112Z,2.08
2023-01-26T00:04:30.060Z,2.08
2023-01-26T00:05:31.925Z,2.07
2023-01-26T00:06:33.712Z,2.05
2023-01-26T00:07:35.457Z,2.05
2023-01-26T00:08:41.189Z,2.02
2023-01-26T00:09:43.508Z,2.04
2023-01-26T00:10:50.469Z,2.07
2023-01-26T00:11:52.243Z,2.09
2023-01-26T00:12:54.063Z,2.11
2023-01-26T00:14:00.206Z,2.10
2023-01-26T00:15:02.047Z,2.12
2023-01-26T00:16:04.026Z,2.13
2023-01-26T00:17:05.838Z,2.11
2023-01-26T00:18:07.612Z,2.11
2023-01-26T00:19:09.456Z,2.14
2023-01-26T00:20:11.731Z,2.14
2023-01-26T00:21:15.521Z,2.11
2023-01-26T00:22:17.285Z,2.09
2023-01-26T00:23:19.020Z,2.09
2023-01-26T00:24:20.880Z,2.10
2023-01-26T00:25:22.916Z,2.10
2023-01-26T00:26:25.761Z,2.08
2023-01-26T00:27:27.655Z,2.09
2023-01-26T00:28:29.688Z,2.10
2023-01-26T00:29:31.524Z,2.12
2023-01-26T00:30:33.533Z,2.12
2023-01-26T00:31:35.500Z,2.15
2023-01-26T00:32:37.942Z,2.14
2023-01-26T00:33:39.715Z,2.15
2023-01-26T00:34:41.544Z,2.15
2023-01-26T00:35:44.810Z,2.17
2023-01-26T00:36:46.625Z,2.18
2023-01-26T00:37:48.447Z,2.18
2023-01-26T00:38:50.296Z,2.20
2023-01-26T00:39:52.047Z,2.19
2023-01-26T00:40:54.277Z,2.18
2023-01-26T00:42:10.295Z,2.18
2023-01-26T00:43:12.195Z,2.18
2023-01-26T00:44:14.042Z,2.19
2023-01-26T00:45:16.001Z,2.18
2023-01-26T00:46:17.811Z,2.19
2023-01-26T00:47:19.927Z,2.20
2023-01-26T00:48:24.467Z,2.21
2023-01-26T00:49:26.616Z,2.24
2023-01-26T00:50:28.440Z,2.23
2023-01-26T00:51:30.189Z,2.22
2023-01-26T00:52:32.230Z,2.21
2023-01-26T00:53:34.013Z,2.23
2023-01-26T00:54:35.675Z,2.22
2023-01-26T00:55:37.559Z,2.21
2023-01-26T00:56:39.359Z,2.21
2023-01-26T00:57:41.330Z,2.19
2023-01-26T00:58:45.186Z,2.18
2023-01-26T00:59:46.948Z,2.15
2023-01-26T01:00:48.792Z,2.15
2023-01-26T01:01:51.023Z,2.16
2023-01-26T01:02:53.011Z,2.15
2023-01-26T01:03:54.860Z,2.12
2023-01-26T01:04:56.723Z,2.14
2023-01-26T01:05:58.481Z,2.13
2023-01-26T01:07:00.392Z,2.09
2023-01-26T01:08:02.658Z,2.04
2023-01-26T01:09:04.569Z,2.05
2023-01-26T01:10:06.530Z,2.04
2023-01-26T01:11:10.080Z,2.00
2023-01-26T01:12:11.948Z,2.00
2023-01-26T01:13:13.786Z,1.95
2023-01-26T01:14:16.295Z,1.96
2023-01-26T01:15:18.128Z,2.01
2023-01-26T01:16:20.153Z,2.00
2023-01-26T01:17:22.011Z,2.00
2023-01-26T01:18:23.801Z,1.98
2023-01-26T01:19:25.604Z,1.98
2023-01-26T01:20:27.388Z,1.97
2023-01-26T01:21:29.277Z,1.87
2023-01-26T01:22:31.117Z,1.76
2023-01-26T01:23:32.956Z,1.70
2023-01-26T01:24:35.580Z,1.65
2023-01-26T01:25:37.376Z,1.67
2023-01-26T01:26:39.694Z,1.67
2023-01-26T01:27:41.544Z,1.68
2023-01-26T01:28:44.078Z,1.69
2023-01-26T01:29:45.877Z,1.72
2023-01-26T01:30:47.719Z,1.71
2023-01-26T01:31:49.548Z,1.73
2023-01-26T01:32:52.503Z,1.69
2023-01-26T01:33:54.580Z,1.73
2023-01-26T01:34:56.356Z,1.72
2023-01-26T01:35:59.224Z,1.69
2023-01-26T01:37:01.042Z,1.68
2023-01-26T01:38:02.934Z,1.68
2023-01-26T01:39:04.840Z,1.72
2023-01-26T01:40:06.933Z,1.76
2023-01-26T01:41:08.998Z,1.79
2023-01-26T01:42:10.778Z,1.80
2023-01-26T01:43:12.755Z,1.78
2023-01-26T01:44:16.587Z,1.80
2023-01-26T01:45:27.287Z,1.84
2023-01-26T01:46:37.422Z,1.80
2023-01-26T01:47:39.371Z,1.76
2023-01-26T01:48:44.110Z,1.72
2023-01-26T01:49:45.987Z,1.76
2023-01-26T01:50:49.514Z,1.82
2023-01-26T01:51:54.767Z,1.86
2023-01-26T01:52:56.711Z,1.88
2023-01-26T01:54:00.120Z,1.88
2023-01-26T01:55:09.294Z,1.90
2023-01-26T01:56:13.738Z,1.91
2023-01-26T01:57:17.880Z,1.94
2023-01-26T01:58:19.969Z,1.95
2023-01-26T01:59:22.617Z,1.93
2023-01-26T02:00:24.644Z,1.92
2023-01-26T02:01:26.663Z,1.92
2023-01-26T02:02:29.001Z,1.89
2023-01-26T02:03:32.390Z,1.91
2023-01-26T02:04:34.183Z,1.92
2023-01-26T02:05:39.349Z,1.90
2023-01-26T02:06:49.499Z,1.92
2023-01-26T02:07:51.970Z,1.95
2023-01-26T02:08:54.924Z,1.96
2023-01-26T02:10:15.563Z,1.97
2023-01-26T02:11:19.947Z,1.98
2023-01-26T02:12:24.172Z,1.97
2023-01-26T02:13:26.742Z,1.98
2023-01-26T02:14:29.273Z,1.96
2023-01-26T02:15:31.230Z,1.97
2023-01-26T02:16:33.122Z,1.96
2023-01-26T02:17:35.000Z,1.97
2023-01-26T02:18:36.907Z,1.98
2023-01-26T02:19:51.677Z,1.97
2023-01-26T02:20:55.675Z,1.94
2023-01-26T02:22:00.589Z,1.93
2023-01-26T02:23:05.059Z,1.91
2023-01-26T02:24:21.687Z,1.93
2023-01-26T02:25:49.535Z,1.93
2023-01-26T02:26:52.133Z,1.94
2023-01-26T02:27:53.936Z,1.99
2023-01-26T02:28:55.833Z,1.97
2023-01-26T02:29:58.914Z,1.93
2023-01-26T02:31:01.214Z,1.88
2023-01-26T02:32:03.016Z,1.80
2023-01-26T02:33:04.935Z,1.79
2023-01-26T02:34:06.730Z,1.73
2023-01-26T02:35:08.802Z,1.77
2023-01-26T02:36:30.378Z,1.80
2023-01-26T02:37:32.195Z,1.78
2023-01-26T02:38:44.432Z,1.79
2023-01-26T02:40:21.665Z,1.85
2023-01-26T02:41:41.908Z,1.87
2023-01-26T02:42:44.661Z,1.91
2023-01-26T02:43:46.571Z,1.85
2023-01-26T02:44:48.534Z,1.79
2023-01-26T02:45:50.443Z,1.80
2023-01-26T02:46:53.305Z,1.81
2023-01-26T02:47:55.157Z,1.80
2023-01-26T02:49:15.891Z,1.77
2023-01-26T02:50:17.889Z,1.77
2023-01-26T02:51:19.714Z,1.71
2023-01-26T02:52:22.689Z,1.72
2023-01-26T02:53:24.517Z,1.71
2023-01-26T02:54:44.980Z,1.72
2023-01-26T02:55:46.761Z,1.76
2023-01-26T02:56:48.500Z,1.74
2023-01-26T02:57:51.585Z,1.71
2023-01-26T02:58:53.495Z,1.70
2023-01-26T02:59:55.296Z,1.71
2023-01-26T03:00:57.184Z,1.76
2023-01-26T03:01:59.326Z,1.69
2023-01-26T03:03:02.397Z,1.71
2023-01-26T03:04:04.329Z,1.72
2023-01-26T03:05:06.370Z,1.71
2023-01-26T03:06:11.762Z,1.72
2023-01-26T03:07:13.498Z,1.74
2023-01-26T03:08:15.318Z,1.73
2023-01-26T03:09:17.206Z,1.72
2023-01-26T03:10:19.323Z,1.76
2023-01-26T03:11:21.106Z,1.77
2023-01-26T03:12:22.855Z,1.77
2023-01-26T03:13:24.695Z,1.79
2023-01-26T03:14:26.454Z,1.80
2023-01-26T03:15:43.662Z,1.80
2023-01-26T03:16:45.569Z,1.84
2023-01-26T03:17:47.345Z,1.88
2023-01-26T03:19:04.002Z,1.87
2023-01-26T03:20:25.193Z,1.88
2023-01-26T03:21:45.301Z,1.92
2023-01-26T03:23:05.484Z,1.95
2023-01-26T03:24:29.782Z,1.98
2023-01-26T03:25:49.827Z,1.98
2023-01-26T03:27:10.109Z,1.97
2023-01-26T03:28:14.160Z,1.96
2023-01-26T03:29:15.968Z,1.96
2023-01-26T03:30:18.848Z,1.94
2023-01-26T03:31:20.716Z,1.93
2023-01-26T03:32:22.642Z,1.89
2023-01-26T03:33:24.502Z,1.88
2023-01-26T03:34:26.527Z,1.88
2023-01-26T03:35:28.311Z,1.87
2023-01-26T03:36:30.052Z,1.86
2023-01-26T03:37:37.054Z,1.85
2023-01-26T03:38:38.882Z,1.84
2023-01-26T03:39:59.229Z,1.81
2023-01-26T03:41:19.263Z,1.78
2023-01-26T03:42:39.489Z,1.77
2023-01-26T03:43:59.712Z,1.76
2023-01-26T03:45:20.012Z,1.75
2023-01-26T03:46:40.045Z,1.70
2023-01-26T03:48:00.318Z,1.66
2023-01-26T03:49:20.400Z,1.65
2023-01-26T03:50:40.940Z,1.67
2023-01-26T03:52:01.106Z,1.70
2023-01-26T03:53:21.294Z,1.72
2023-01-26T03:54:41.542Z,1.69
2023-01-26T03:56:01.684Z,1.68
2023-01-26T03:57:03.613Z,1.62
2023-01-26T03:58:05.390Z,1.61
2023-01-26T03:59:11.475Z,1.62
2023-01-26T04:00:15.376Z,1.60
2023-01-26T04:01:21.973Z,1.61
2023-01-26T04:02:42.688Z,1.63
2023-01-26T04:04:03.040Z,1.60
2023-01-26T04:05:23.710Z,1.61
2023-01-26T04:06:44.458Z,1.61
2023-01-26T04:08:04.771Z,1.62
2023-01-26T04:09:06.567Z,1.59
2023-01-26T04:10:08.858Z,1.59
2023-01-26T04:11:10.700Z,1.60
2023-01-26T04:12:13.871Z,1.60
2023-01-26T04:13:34.296Z,1.52
2023-01-26T04:14:54.484Z,1.47
2023-01-26T04:16:14.759Z,1.46
2023-01-26T04:17:34.995Z,1.47
2023-01-26T04:18:55.236Z,1.51
2023-01-26T04:20:15.410Z,1.53
2023-01-26T04:21:34.565Z,1.54
2023-01-26T04:22:40.755Z,1.49
2023-01-26T04:23:42.518Z,1.49
2023-01-26T04:24:44.226Z,1.44
2023-01-26T04:25:47.062Z,1.40
2023-01-26T04:26:49.111Z,1.36
2023-01-26T04:27:50.945Z,1.37
2023-01-26T04:28:52.934Z,1.37
2023-01-26T04:29:54.799Z,1.37
2023-01-26T04:30:56.666Z,1.39
2023-01-26T04:31:58.561Z,1.40
2023-01-26T04:33:00.322Z,1.40
2023-01-26T04:34:02.774Z,1.42
2023-01-26T04:35:05.519Z,1.45
2023-01-26T04:36:08.870Z,1.45
2023-01-26T04:37:10.712Z,1.44
2023-01-26T04:38:12.509Z,1.45
2023-01-26T04:39:14.359Z,1.42
2023-01-26T04:40:16.210Z,1.44
2023-01-26T04:41:18.183Z,1.45
2023-01-26T04:42:20.094Z,1.45
2023-01-26T04:43:21.888Z,1.47
2023-01-26T04:44:23.946Z,1.44
2023-01-26T04:45:25.877Z,1.42
2023-01-26T04:46:27.988Z,1.39
2023-01-26T04:47:29.922Z,1.35
2023-01-26T04:48:31.892Z,1.32
2023-01-26T04:49:33.724Z,1.32
2023-01-26T04:50:35.538Z,1.38
2023-01-26T04:51:37.443Z,1.38
2023-01-26T04:52:39.250Z,1.36
2023-01-26T04:53:41.064Z,1.37
2023-01-26T04:54:42.924Z,1.41
2023-01-26T04:55:44.699Z,1.44
2023-01-26T04:56:46.543Z,1.46
2023-01-26T04:57:48.333Z,1.48
2023-01-26T04:58:50.225Z,1.52
2023-01-26T04:59:52.086Z,1.56
2023-01-26T05:00:55.286Z,1.59
2023-01-26T05:01:57.160Z,1.58
2023-01-26T05:02:58.916Z,1.58
2023-01-26T05:04:01.993Z,1.58
2023-01-26T05:05:03.943Z,1.60
2023-01-26T05:06:05.823Z,1.61
2023-01-26T05:07:07.653Z,1.63
2023-01-26T05:08:09.447Z,1.64
2023-01-26T05:09:11.667Z,1.66
2023-01-26T05:10:15.761Z,1.66
2023-01-26T05:11:17.790Z,1.67
2023-01-26T05:12:34.712Z,1.70
2023-01-26T05:13:37.482Z,1.69
2023-01-26T05:14:39.298Z,1.70
2023-01-26T05:15:41.234Z,1.71
2023-01-26T05:16:43.081Z,1.72
2023-01-26T05:17:45.299Z,1.74
2023-01-26T05:18:47.098Z,1.68
2023-01-26T05:19:48.952Z,1.67
2023-01-26T05:20:50.756Z,1.67
2023-01-26T05:21:52.529Z,1.69
2023-01-26T05:22:54.489Z,1.69
2023-01-26T05:23:56.404Z,1.67
2023-01-26T05:24:58.211Z,1.69
2023-01-26T05:26:00.004Z,1.70
2023-01-26T05:27:20.100Z,1.71
2023-01-26T05:28:22.034Z,1.70
2023-01-26T05:29:23.943Z,1.71
2023-01-26T05:30:25.829Z,1.72
2023-01-26T05:31:27.727Z,1.73
2023-01-26T05:32:30.583Z,1.75
2023-01-26T05:33:32.551Z,1.77
2023-01-26T05:34:34.343Z,1.78
2023-01-26T05:35:36.508Z,1.77
2023-01-26T05:36:38.320Z,1.79
2023-01-26T05:37:42.340Z,1.80
2023-01-26T05:38:44.428Z,1.76
2023-01-26T05:39:46.380Z,1.74
2023-01-26T05:40:48.267Z,1.73
2023-01-26T05:41:50.037Z,1.75
2023-01-26T05:42:52.339Z,1.76
2023-01-26T05:43:54.170Z,1.76
2023-01-26T05:44:56.165Z,1.71
2023-01-26T05:45:58.247Z,1.69
2023-01-26T05:47:00.067Z,1.69
2023-01-26T05:48:02.026Z,1.68
2023-01-26T05:49:03.977Z,1.70
2023-01-26T05:50:06.117Z,1.67
2023-01-26T05:51:07.926Z,1.66
2023-01-26T05:52:13.514Z,1.66
2023-01-26T05:53:15.496Z,1.67
2023-01-26T05:54:17.406Z,1.69
2023-01-26T05:55:19.222Z,1.67
2023-01-26T05:56:21.059Z,1.68
2023-01-26T05:57:22.937Z,1.71
2023-01-26T05:58:24.734Z,1.72
2023-01-26T05:59:26.587Z,1.72
2023-01-26T06:00:28.351Z,1.74
2023-01-26T06:01:30.153Z,1.75
2023-01-26T06:02:32.036Z,1.77
2023-01-26T06:03:33.913Z,1.80
2023-01-26T06:04:35.764Z,1.80
2023-01-26T06:05:39.042Z,1.82
2023-01-26T06:06:41.022Z,1.83
2023-01-26T06:07:42.932Z,1.81
2023-01-26T06:08:44.714Z,1.79
2023-01-26T06:09:46.677Z,1.78
2023-01-26T06:10:48.420Z,1.78
2023-01-26T06:11:50.277Z,1.80
2023-01-26T06:12:52.006Z,1.82
2023-01-26T06:13:53.809Z,1.81
2023-01-26T06:14:55.672Z,1.81
2023-01-26T06:16:00.496Z,1.81
2023-01-26T06:17:02.365Z,1.78
2023-01-26T06:18:04.311Z,1.77
2023-01-26T06:19:06.168Z,1.78
2023-01-26T06:20:08.680Z,1.76
2023-01-26T06:21:10.498Z,1.75
2023-01-26T06:22:13.300Z,1.72
2023-01-26T06:23:15.058Z,1.70
2023-01-26T06:24:16.991Z,1.69
2023-01-26T06:25:18.895Z,1.70
2023-01-26T06:26:20.851Z,1.67
2023-01-26T06:27:22.746Z,1.68
2023-01-26T06:28:24.588Z,1.70
2023-01-26T06:29:26.483Z,1.69
2023-01-26T06:30:28.430Z,1.66
2023-01-26T06:31:30.496Z,1.65
2023-01-26T06:32:32.348Z,1.67
2023-01-26T06:33:35.628Z,1.69
2023-01-26T06:34:37.603Z,1.70
2023-01-26T06:35:39.367Z,1.68
2023-01-26T06:36:41.817Z,1.67
2023-01-26T06:37:43.641Z,1.68
2023-01-26T06:38:46.791Z,1.66
2023-01-26T06:39:48.587Z,1.65
2023-01-26T06:40:51.746Z,1.66
2023-01-26T06:41:53.568Z,1.65
2023-01-26T06:42:55.428Z,1.63
2023-01-26T06:43:57.145Z,1.61
2023-01-26T06:44:59.244Z,1.60
2023-01-26T06:46:01.649Z,1.61
2023-01-26T06:47:03.587Z,1.59
2023-01-26T06:48:05.457Z,1.57
2023-01-26T06:49:07.370Z,1.58
2023-01-26T06:50:09.858Z,1.60
2023-01-26T06:51:20.829Z,1.59
2023-01-26T06:52:25.969Z,1.60
2023-01-26T06:53:34.402Z,1.63
2023-01-26T06:54:36.179Z,1.62
2023-01-26T06:55:39.198Z,1.62
2023-01-26T06:56:41.069Z,1.59
2023-01-26T06:57:42.955Z,1.53
2023-01-26T06:58:44.846Z,1.49
2023-01-26T06:59:46.667Z,1.49
2023-01-26T07:00:48.582Z,1.50
2023-01-26T07:01:50.439Z,1.47
2023-01-26T07:02:52.242Z,1.39
2023-01-26T07:03:55.442Z,1.40
2023-01-26T07:04:57.812Z,1.43
2023-01-26T07:05:59.555Z,1.44
2023-01-26T07:07:01.425Z,1.43
2023-01-26T07:08:04.586Z,1.44
2023-01-26T07:09:06.619Z,1.43
2023-01-26T07:10:08.980Z,1.43
2023-01-26T07:11:11.620Z,1.45
2023-01-26T07:12:13.456Z,1.45
2023-01-26T07:13:15.400Z,1.40
2023-01-26T07:14:17.235Z,1.40
2023-01-26T07:15:19.061Z,1.37
2023-01-26T07:16:20.931Z,1.36
2023-01-26T07:17:22.672Z,1.38
2023-01-26T07:18:24.525Z,1.37
2023-01-26T07:19:26.469Z,1.38
2023-01-26T07:20:28.544Z,1.38
2023-01-26T07:21:30.465Z,1.38
2023-01-26T07:22:32.349Z,1.37
2023-01-26T07:23:35.147Z,1.35
2023-01-26T07:24:37.093Z,1.33
2023-01-26T07:25:38.938Z,1.33
2023-01-26T07:26:40.675Z,1.34
2023-01-26T07:27:42.447Z,1.36
2023-01-26T07:28:44.322Z,1.31
2023-01-26T07:29:46.990Z,1.31
2023-01-26T07:30:49.368Z,1.32
2023-01-26T07:31:51.398Z,1.32
2023-01-26T07:32:53.205Z,1.31
2023-01-26T07:33:55.022Z,1.31
2023-01-26T07:34:56.814Z,1.35
2023-01-26T07:35:59.004Z,1.35
2023-01-26T07:37:00.816Z,1.32
2023-01-26T07:38:05.831Z,1.28
2023-01-26T07:39:08.609Z,1.22
2023-01-26T07:40:11.491Z,1.20
2023-01-26T07:41:13.597Z,1.23
2023-01-26T07:42:15.646Z,1.24
2023-01-26T07:43:17.397Z,1.26
2023-01-26T07:44:19.191Z,1.29
2023-01-26T07:45:21.089Z,1.31
2023-01-26T07:46:24.056Z,1.35
2023-01-26T07:47:25.991Z,1.37
2023-01-26T07:48:30.099Z,1.37
2023-01-26T07:49:32.167Z,1.36
2023-01-26T07:50:33.917Z,1.36
2023-01-26T07:51:35.779Z,1.32
2023-01-26T07:52:38.548Z,1.30
2023-01-26T07:53:41.432Z,1.24
2023-01-26T07:54:43.203Z,1.23
2023-01-26T07:55:45.543Z,1.25
2023-01-26T07:56:47.875Z,1.28
2023-01-26T07:57:49.794Z,1.29
2023-01-26T07:58:55.122Z,1.33
2023-01-26T07:59:56.944Z,1.37
2023-01-26T08:01:24.964Z,1.34
2023-01-26T08:02:26.892Z,1.33
2023-01-26T08:03:28.721Z,1.32
2023-01-26T08:04:30.582Z,1.34
2023-01-26T08:05:32.977Z,1.35
2023-01-26T08:06:34.986Z,1.38
2023-01-26T08:07:37.056Z,1.38
2023-01-26T08:08:41.642Z,1.36
2023-01-26T08:09:43.492Z,1.32
2023-01-26T08:10:45.272Z,1.27
2023-01-26T08:11:47.098Z,1.25
2023-01-26T08:12:49.122Z,1.23
2023-01-26T08:13:50.984Z,1.24
2023-01-26T08:14:52.976Z,1.27
2023-01-26T08:15:55.282Z,1.29
2023-01-26T08:16:57.128Z,1.28
2023-01-26T08:17:59.456Z,1.28
2023-01-26T08:19:01.368Z,1.28
2023-01-26T08:20:03.954Z,1.28
2023-01-26T08:21:05.761Z,1.26
2023-01-26T08:22:07.552Z,1.23
2023-01-26T08:23:09.440Z,1.23
2023-01-26T08:24:12.016Z,1.25
2023-01-26T08:25:13.790Z,1.28
2023-01-26T08:26:15.618Z,1.30
2023-01-26T08:27:17.724Z,1.32
2023-01-26T08:28:21.206Z,1.32
2023-01-26T08:29:23.168Z,1.34
2023-01-26T08:30:24.924Z,1.35
2023-01-26T08:31:28.509Z,1.35
2023-01-26T08:32:30.992Z,1.35
2023-01-26T08:33:33.333Z,1.37
2023-01-26T08:34:35.438Z,1.35
2023-01-26T08:35:37.285Z,1.38
2023-01-26T08:36:39.695Z,1.40
2023-01-26T08:37:41.593Z,1.40
2023-01-26T08:38:44.100Z,1.40
2023-01-26T08:39:45.899Z,1.45
2023-01-26T08:40:51.653Z,1.48
2023-01-26T08:41:53.408Z,1.53
2023-01-26T08:42:55.734Z,1.55
2023-01-26T08:43:59.658Z,1.54
2023-01-26T08:45:01.661Z,1.56
2023-01-26T08:46:03.642Z,1.59
2023-01-26T08:47:05.472Z,1.63
2023-01-26T08:48:07.275Z,1.63
2023-01-26T08:49:09.628Z,1.64
2023-01-26T08:50:12.073Z,1.65
2023-01-26T08:51:14.322Z,1.67
2023-01-26T08:52:16.972Z,1.63
2023-01-26T08:53:18.774Z,1.65
2023-01-26T08:54:20.643Z,1.66
2023-01-26T08:55:22.472Z,1.69
2023-01-26T08:56:24.300Z,1.71
2023-01-26T08:57:26.491Z,1.74
2023-01-26T08:58:29.246Z,1.70
2023-01-26T08:59:31.038Z,1.67
2023-01-26T09:00:33.634Z,1.67
2023-01-26T09:01:35.468Z,1.68
2023-01-26T09:02:37.313Z,1.67
2023-01-26T09:03:39.822Z,1.69
2023-01-26T09:04:41.719Z,1.67
2023-01-26T09:05:43.709Z,1.66
2023-01-26T09:06:45.613Z,1.66
2023-01-26T09:07:47.518Z,1.64
2023-01-26T09:08:49.376Z,1.61
2023-01-26T09:09:51.117Z,1.60
2023-01-26T09:10:52.899Z,1.60
2023-01-26T09:11:58.261Z,1.62
2023-01-26T09:13:00.670Z,1.64
2023-01-26T09:14:02.544Z,1.67
2023-01-26T09:15:04.541Z,1.65
2023-01-26T09:16:07.723Z,1.62
2023-01-26T09:17:09.647Z,1.56
2023-01-26T09:18:12.035Z,1.54
2023-01-26T09:19:13.899Z,1.55
2023-01-26T09:20:16.071Z,1.54
2023-01-26T09:21:18.329Z,1.54
2023-01-26T09:22:20.250Z,1.52
2023-01-26T09:23:22.055Z,1.54
2023-01-26T09:24:23.958Z,1.54
2023-01-26T09:25:25.786Z,1.49
2023-01-26T09:26:27.538Z,1.49
2023-01-26T09:27:29.467Z,1.52
2023-01-26T09:28:31.310Z,1.54
2023-01-26T09:29:33.181Z,1.56
2023-01-26T09:30:35.115Z,1.58
2023-01-26T09:31:37.047Z,1.58
2023-01-26T09:32:39.112Z,1.58
2023-01-26T09:33:40.900Z,1.58
2023-01-26T09:34:45.443Z,1.58
2023-01-26T09:35:47.858Z,1.59
2023-01-26T09:36:49.715Z,1.60
2023-01-26T09:37:51.582Z,1.63
2023-01-26T09:38:54.475Z,1.59
2023-01-26T09:39:56.259Z,1.59
2023-01-26T09:41:15.770Z,1.60
2023-01-26T09:42:29.992Z,1.60
2023-01-26T09:43:34.690Z,1.63
2023-01-26T09:44:52.362Z,1.65
2023-01-26T09:46:23.431Z,1.60
2023-01-26T09:47:29.477Z,1.60
2023-01-26T09:48:50.885Z,1.60
2023-01-26T09:50:00.872Z,1.63
2023-01-26T09:51:02.827Z,1.63
2023-01-26T09:52:12.652Z,1.64
2023-01-26T09:53:20.689Z,1.65
2023-01-26T09:54:34.305Z,1.68
2023-01-26T09:55:36.356Z,1.69
2023-01-26T09:56:38.314Z,1.67
2023-01-26T09:57:45.845Z,1.55
2023-01-26T09:58:52.316Z,1.56
2023-01-26T10:00:12.207Z,1.59
2023-01-26T10:01:21.886Z,1.58
2023-01-26T10:02:30.689Z,1.59
2023-01-26T10:03:51.038Z,1.60
2023-01-26T10:04:56.977Z,1.60
2023-01-26T10:06:01.728Z,1.56
2023-01-26T10:07:05.723Z,1.56
2023-01-26T10:08:15.051Z,1.59
2023-01-26T10:09:23.283Z,1.60
2023-01-26T10:10:30.046Z,1.64
2023-01-26T10:11:35.524Z,1.67
2023-01-26T10:12:38.563Z,1.67
2023-01-26T10:13:42.272Z,1.67
2023-01-26T10:14:51.727Z,1.65
2023-01-26T10:16:05.755Z,1.66
2023-01-26T10:17:13.521Z,1.66
2023-01-26T10:18:35.587Z,1.69
2023-01-26T10:19:42.821Z,1.68
2023-01-26T10:20:47.242Z,1.69
2023-01-26T10:21:50.947Z,1.65
2023-01-26T10:22:54.310Z,1.65
2023-01-26T10:23:58.393Z,1.68
2023-01-26T10:25:00.438Z,1.69
2023-01-26T10:26:16.870Z,1.67
2023-01-26T10:27:19.258Z,1.67
2023-01-26T10:28:31.278Z,1.68
2023-01-26T10:29:33.054Z,1.70
2023-01-26T10:30:34.817Z,1.72
2023-01-26T10:31:36.677Z,1.68
2023-01-26T10:32:39.464Z,1.62
2023-01-26T10:33:45.841Z,1.60
2023-01-26T10:34:49.840Z,1.59
2023-01-26T10:35:51.674Z,1.61
2023-01-26T10:36:58.637Z,1.63
2023-01-26T10:38:00.466Z,1.66
2023-01-26T10:39:09.688Z,1.71
2023-01-26T10:40:12.329Z,1.74
2023-01-26T10:41:19.691Z,1.76
2023-01-26T10:42:21.640Z,1.78
2023-01-26T10:43:25.073Z,1.78
2023-01-26T10:44:34.383Z,1.78
2023-01-26T10:45:45.048Z,1.76
2023-01-26T10:46:46.904Z,1.76
2023-01-26T10:48:02.576Z,1.76
2023-01-26T10:49:16.801Z,1.74
2023-01-26T10:50:23.410Z,1.73
2023-01-26T10:51:27.313Z,1.75
2023-01-26T10:52:29.147Z,1.75
2023-01-26T10:53:31.022Z,1.78
2023-01-26T10:54:35.904Z,1.77
2023-01-26T10:55:37.749Z,1.79
2023-01-26T10:56:47.329Z,1.78
2023-01-26T10:57:49.235Z,1.76
2023-01-26T10:58:55.322Z,1.71
2023-01-26T10:59:57.091Z,1.71
2023-01-26T11:00:58.887Z,1.67
2023-01-26T11:02:02.452Z,1.69
2023-01-26T11:03:17.980Z,1.74
2023-01-26T11:04:20.600Z,1.76
2023-01-26T11:05:23.763Z,1.75
2023-01-26T11:06:28.651Z,1.75
2023-01-26T11:07:40.512Z,1.78
2023-01-26T11:08:43.107Z,1.78
2023-01-26T11:09:44.989Z,1.77
2023-01-26T11:10:53.407Z,1.76
2023-01-26T11:12:05.997Z,1.75
2023-01-26T11:13:19.536Z,1.74
2023-01-26T11:14:21.500Z,1.74
2023-01-26T11:15:25.091Z,1.72
2023-01-26T11:16:28.200Z,1.69
2023-01-26T11:17:38.807Z,1.68
2023-01-26T11:18:58.944Z,1.68
2023-01-26T11:20:01.945Z,1.70
2023-01-26T11:21:03.762Z,1.71
2023-01-26T11:22:07.595Z,1.70
2023-01-26T11:23:14.161Z,1.66
2023-01-26T11:24:26.582Z,1.69
2023-01-26T11:25:30.798Z,1.69
2023-01-26T11:26:51.174Z,1.73
2023-01-26T11:28:08.362Z,1.76
2023-01-26T11:29:31.704Z,1.73
2023-01-26T11:30:42.809Z,1.72
2023-01-26T11:31:50.786Z,1.76
2023-01-26T11:33:18.763Z,1.79
2023-01-26T11:34:39.299Z,1.82
2023-01-26T11:35:56.175Z,1.85
2023-01-26T11:36:58.193Z,1.86
2023-01-26T11:38:07.037Z,1.87
2023-01-26T11:39:24.960Z,1.88
2023-01-26T11:40:30.369Z,1.86
2023-01-26T11:41:38.265Z,1.78
2023-01-26T11:42:40.041Z,1.71
2023-01-26T11:43:44.885Z,1.72
2023-01-26T11:45:03.440Z,1.74
2023-01-26T11:46:17.717Z,1.73
2023-01-26T11:47:22.493Z,1.68
2023-01-26T11:48:24.301Z,1.72
2023-01-26T11:49:35.088Z,1.75
2023-01-26T11:50:39.932Z,1.78
2023-01-26T11:51:43.456Z,1.79
2023-01-26T11:52:49.923Z,1.76
2023-01-26T11:54:00.873Z,1.76
2023-01-26T11:55:02.586Z,1.78
2023-01-26T11:56:07.460Z,1.77
2023-01-26T11:57:32.592Z,1.73
2023-01-26T11:58:41.640Z,1.73
2023-01-26T11:59:48.475Z,1.78
2023-01-26T12:00:52.352Z,1.79
2023-01-26T12:02:00.745Z,1.77
2023-01-26T12:03:04.446Z,1.74
2023-01-26T12:04:07.091Z,1.71
2023-01-26T12:05:24.378Z,1.68
2023-01-26T12:06:32.112Z,1.69
2023-01-26T12:07:57.539Z,1.68
2023-01-26T12:09:02.322Z,1.67
2023-01-26T12:10:06.371Z,1.69
2023-01-26T12:11:24.072Z,1.74
2023-01-26T12:12:40.249Z,1.74
2023-01-26T12:13:44.945Z,1.76
2023-01-26T12:14:49.827Z,1.75
2023-01-26T12:15:55.240Z,1.76
2023-01-26T12:17:16.822Z,1.75
2023-01-26T12:18:32.304Z,1.74
2023-01-26T12:19:53.112Z,1.72
2023-01-26T12:21:00.356Z,1.75
2023-01-26T12:22:25.254Z,1.75
2023-01-26T12:23:35.521Z,1.72
2023-01-26T12:25:08.400Z,1.71
2023-01-26T12:26:07.990Z,1.72
2023-01-26T12:27:18.113Z,1.70
2023-01-26T12:28:22.485Z,1.72
2023-01-26T12:29:44.107Z,1.71
2023-01-26T12:30:49.056Z,1.67
2023-01-26T12:32:08.507Z,1.66
2023-01-26T12:33:11.001Z,1.69
2023-01-26T12:34:13.699Z,1.69
2023-01-26T12:35:21.994Z,1.69
2023-01-26T12:36:42.741Z,1.68
2023-01-26T12:37:51.442Z,1.66
2023-01-26T12:39:09.169Z,1.63
2023-01-26T12:40:16.746Z,1.66
2023-01-26T12:41:21.562Z,1.67
2023-01-26T12:42:49.730Z,1.64
2023-01-26T12:43:51.386Z,1.65
2023-01-26T12:45:02.293Z,1.67
2023-01-26T12:46:06.706Z,1.66
2023-01-26T12:47:12.541Z,1.67
2023-01-26T12:48:28.350Z,1.69
2023-01-26T12:49:38.766Z,1.70
2023-01-26T12:50:43.346Z,1.73
2023-01-26T12:51:49.641Z,1.71
2023-01-26T12:52:51.388Z,1.68
2023-01-26T12:54:08.479Z,1.68
2023-01-26T12:55:16.588Z,1.69
2023-01-26T12:56:26.318Z,1.69
2023-01-26T12:57:34.222Z,1.68
2023-01-26T12:58:39.939Z,1.62
2023-01-26T12:59:47.897Z,1.63
2023-01-26T13:00:52.152Z,1.64
2023-01-26T13:01:54.880Z,1.62
2023-01-26T13:03:02.751Z,1.63
2023-01-26T13:04:08.551Z,1.64
2023-01-26T13:05:23.491Z,1.60
2023-01-26T13:06:26.108Z,1.62
2023-01-26T13:07:29.500Z,1.59
2023-01-26T13:08:31.249Z,1.58
2023-01-26T13:09:33.100Z,1.60
2023-01-26T13:10:46.413Z,1.62
2023-01-26T13:11:55.420Z,1.61
2023-01-26T13:12:57.201Z,1.63
2023-01-26T13:13:58.952Z,1.65
2023-01-26T13:15:01.391Z,1.68
2023-01-26T13:16:15.492Z,1.67
2023-01-26T13:17:17.413Z,1.68
2023-01-26T13:18:19.155Z,1.66
2023-01-26T13:19:37.573Z,1.62
2023-01-26T13:20:47.071Z,1.62
2023-01-26T13:21:48.909Z,1.64
2023-01-26T13:22:51.251Z,1.65
2023-01-26T13:23:53.177Z,1.63
2023-01-26T13:24:58.759Z,1.63
2023-01-26T13:26:15.385Z,1.62
2023-01-26T13:27:32.478Z,1.63
2023-01-26T13:28:34.370Z,1.61
2023-01-26T13:29:36.519Z,1.61
2023-01-26T13:30:46.389Z,1.63
2023-01-26T13:31:48.277Z,1.65
2023-01-26T13:32:50.059Z,1.63
2023-01-26T13:33:51.876Z,1.60
2023-01-26T13:34:57.751Z,1.61
2023-01-26T13:36:02.739Z,1.59
2023-01-26T13:37:24.812Z,1.58
2023-01-26T13:38:34.160Z,1.56
2023-01-26T13:39:37.416Z,1.57
2023-01-26T13:40:50.619Z,1.57
2023-01-26T13:41:53.387Z,1.55
2023-01-26T13:43:25.686Z,1.55
2023-01-26T13:44:51.756Z,1.55
2023-01-26T13:46:12.470Z,1.54
2023-01-26T13:47:25.240Z,1.56
2023-01-26T13:48:35.003Z,1.54
2023-01-26T13:49:38.571Z,1.52
2023-01-26T13:50:41.104Z,1.51
2023-01-26T13:51:43.596Z,1.50
2023-01-26T13:52:45.382Z,1.51
2023-01-26T13:53:55.443Z,1.51
2023-01-26T13:55:02.261Z,1.50
2023-01-26T13:56:06.141Z,1.48
2023-01-26T13:57:08.004Z,1.48
2023-01-26T13:58:17.722Z,1.48
2023-01-26T13:59:21.062Z,1.48
2023-01-26T14:00:22.849Z,1.50
2023-01-26T14:01:24.658Z,1.54
2023-01-26T14:02:26.591Z,1.56
2023-01-26T14:03:28.869Z,1.54
2023-01-26T14:04:32.347Z,1.56
2023-01-26T14:05:35.785Z,1.59
2023-01-26T14:06:37.947Z,1.60
2023-01-26T14:07:44.895Z,1.59
2023-01-26T14:08:54.897Z,1.59
2023-01-26T14:09:59.911Z,1.59
2023-01-26T14:11:04.429Z,1.59
2023-01-26T14:12:06.601Z,1.60
2023-01-26T14:13:08.366Z,1.57
2023-01-26T14:14:27.119Z,1.56
2023-01-26T14:15:30.518Z,1.57
2023-01-26T14:16:35.835Z,1.55
2023-01-26T14:17:47.229Z,1.53
2023-01-26T14:18:49.984Z,1.53
2023-01-26T14:19:51.869Z,1.49
2023-01-26T14:20:59.771Z,1.49
2023-01-26T14:22:01.679Z,1.48
2023-01-26T14:23:15.624Z,1.48
2023-01-26T14:24:17.979Z,1.49
2023-01-26T14:25:20.375Z,1.46
2023-01-26T14:26:28.987Z,1.44
2023-01-26T14:27:31.116Z,1.47
2023-01-26T14:28:34.979Z,1.41